Toyo — JD2815 — position and weather

sailwx.info

Track history (hours):
 
Tides and Currents Weather Stations Pressure Air Temp Water Temp Dewpoint Dewpoint Depression Visibility Wind Speed Wind Dir Waves Ship Positions

Toyo

Last reported at 2017-Oct-20 03:00 UTC. Time now 2017-Oct-20 03:26 UTC.
Position N 34°35' E 135°04'.

Length 28 m; draft 1.8 m.

Type: Other ship. MMSI: 431000747.

Date/timePositionNaut miles runAvg speedWind from/ knotsBaromVisibWave heightAir tempDewpointWater temp
2017-Oct-20 03:00N 34°35' E 135°04'6 3.4
2017-Oct-20 01:16N 34°38' E 134°58'3 6.7
2017-Oct-20 00:49N 34°37' E 135°02'2 5.4
2017-Oct-20 00:30N 34°36' E 135°03'4 8.2
2017-Oct-20 00:00N 34°34' E 135°08'612.5
2017-Oct-19 23:30N 34°40' E 135°12'2 3.2
2017-Oct-19 23:00N 34°41' E 135°12'0 0.0
2017-Oct-19 22:30N 34°41' E 135°12'0 0.1
2017-Oct-19 22:00N 34°41' E 135°12'0 0.0
2017-Oct-18 07:30N 34°41' E 135°12'611.8
2017-Oct-18 07:00N 34°36' E 135°08'7 4.1
2017-Oct-18 05:23N 34°37' E 134°60'6 0.5
2017-Oct-17 17:37N 34°35' E 134°53'315.6
2017-Oct-17 17:26N 34°37' E 134°56'614.4
2017-Oct-17 16:59N 34°37' E 135°03'715.3
2017-Oct-17 16:30N 34°40' E 135°12'1 0.1
2017-Oct-17 07:35N 34°41' E 135°12'0 0.7
2017-Oct-17 07:30N 34°41' E 135°12'712.9
2017-Oct-17 06:58N 34°36' E 135°07'8 7.8
2017-Oct-17 05:57N 34°35' E 134°57'5 9.1
2017-Oct-17 05:25N 34°37' E 135°02'615.8
2017-Oct-17 05:00N 34°38' E 135°10'3 6.5
2017-Oct-17 04:30N 34°41' E 135°12'0 0.0
2017-Oct-16 06:49N 34°41' E 135°12'0 0.0
2017-Oct-16 06:30N 34°41' E 135°12'2 3.2
2017-Oct-16 06:00N 34°40' E 135°11'0 0.8
2017-Oct-16 05:30N 34°40' E 135°11'3 6.5
2017-Oct-16 05:00N 34°37' E 135°08'13 0.4
2017-Oct-14 18:29N 34°36' E 134°53'714.1
2017-Oct-14 18:00N 34°37' E 135°01'5 9.2
2017-Oct-14 17:30N 34°35' E 135°06'2 4.8
2017-Oct-14 17:00N 34°36' E 135°09'611.9
2017-Oct-14 16:30N 34°41' E 135°12'0 0.7
2017-Oct-14 16:00N 34°41' E 135°12'0 0.0
2017-Oct-14 15:30N 34°41' E 135°12'0 0.0
2017-Oct-14 15:00N 34°41' E 135°12'0 0.0
2017-Oct-14 14:30N 34°41' E 135°12'0 0.1
2017-Oct-14 14:00N 34°41' E 135°12'0 0.1
2017-Oct-14 13:30N 34°41' E 135°12'0 0.0
2017-Oct-14 13:00N 34°41' E 135°12'0 0.0
2017-Oct-14 12:30N 34°41' E 135°12'0 0.0
2017-Oct-12 21:22N 34°41' E 135°12'2 4.8
2017-Oct-12 21:00N 34°40' E 135°11'714.0
2017-Oct-12 20:30N 34°36' E 135°04'3 4.2
2017-Oct-12 19:53N 34°37' E 135°01'411.0
2017-Oct-12 19:30N 34°35' E 135°05'3 5.8
2017-Oct-12 19:01N 34°34' E 135°09'611.8
2017-Oct-12 18:30N 34°40' E 135°11'2 3.5
2017-Oct-12 18:00N 34°41' E 135°12'0 0.0
2017-Oct-12 00:20N 34°41' E 135°12'0 0.0
2017-Oct-12 00:00N 34°41' E 135°12'2 3.2
2017-Oct-11 23:30N 34°40' E 135°11'0 0.1
2017-Oct-11 23:00N 34°40' E 135°11'0 0.1
2017-Oct-11 22:30N 34°40' E 135°11'0 0.0
2017-Oct-11 22:00N 34°40' E 135°11'0 0.0
2017-Oct-11 21:30N 34°40' E 135°11'0 0.0
2017-Oct-11 21:00N 34°40' E 135°11'0 0.0
2017-Oct-11 20:30N 34°40' E 135°11'0 0.0
2017-Oct-11 20:00N 34°40' E 135°11'0 0.0
2017-Oct-11 19:30N 34°40' E 135°11'2 3.9
2017-Oct-11 19:00N 34°38' E 135°10'1013.6
2017-Oct-11 18:17N 34°37' E 134°58'4 9.0
2017-Oct-11 17:53N 34°37' E 135°03'3 9.1
2017-Oct-11 17:30N 34°35' E 135°06'2 3.4
2017-Oct-11 17:01N 34°35' E 135°08'7 0.2
2017-Oct-10 11:50N 34°41' E 135°12'0 0.0
2017-Oct-10 11:30N 34°41' E 135°12'0 0.0
2017-Oct-10 11:00N 34°41' E 135°12'0 0.0
2017-Oct-10 10:30N 34°41' E 135°12'0 0.0
2017-Oct-10 10:00N 34°41' E 135°12'0 0.0
2017-Oct-10 09:30N 34°41' E 135°12'0 0.0
2017-Oct-10 09:00N 34°41' E 135°12'0 0.0
2017-Oct-10 08:30N 34°41' E 135°12'0 0.1
2017-Oct-10 08:00N 34°41' E 135°12'0 0.1
2017-Oct-10 07:30N 34°41' E 135°12'0 0.0
2017-Oct-10 07:00N 34°41' E 135°12'4 8.9
2017-Oct-10 06:30N 34°37' E 135°10'  
Track history (hours):
 
Tides and Currents Weather Stations Pressure Air Temp Water Temp Dewpoint Dewpoint Depression Visibility Wind Speed Wind Dir Waves Ship Positions

Toyo

Last reported at 2017-Oct-20 03:00 UTC. Time now 2017-Oct-20 03:26 UTC.
Position N 34°35' E 135°04'.

Length 28 m; draft 1.8 m.

Type: Other ship. MMSI: 431000747.

Date/timePositionNaut miles runAvg speedWind from/ knotsBaromVisibWave heightAir tempDewpointWater temp
2017-Oct-20 03:00N 34°35' E 135°04'6 3.4
2017-Oct-20 01:16N 34°38' E 134°58'3 6.7
2017-Oct-20 00:49N 34°37' E 135°02'2 5.4
2017-Oct-20 00:30N 34°36' E 135°03'4 8.2
2017-Oct-20 00:00N 34°34' E 135°08'612.5
2017-Oct-19 23:30N 34°40' E 135°12'2 3.2
2017-Oct-19 23:00N 34°41' E 135°12'0 0.0
2017-Oct-19 22:30N 34°41' E 135°12'0 0.1
2017-Oct-19 22:00N 34°41' E 135°12'0 0.0
2017-Oct-18 07:30N 34°41' E 135°12'611.8
2017-Oct-18 07:00N 34°36' E 135°08'7 4.1
2017-Oct-18 05:23N 34°37' E 134°60'6 0.5
2017-Oct-17 17:37N 34°35' E 134°53'315.6
2017-Oct-17 17:26N 34°37' E 134°56'614.4
2017-Oct-17 16:59N 34°37' E 135°03'715.3
2017-Oct-17 16:30N 34°40' E 135°12'1 0.1
2017-Oct-17 07:35N 34°41' E 135°12'0 0.7
2017-Oct-17 07:30N 34°41' E 135°12'712.9
2017-Oct-17 06:58N 34°36' E 135°07'8 7.8
2017-Oct-17 05:57N 34°35' E 134°57'5 9.1
2017-Oct-17 05:25N 34°37' E 135°02'615.8
2017-Oct-17 05:00N 34°38' E 135°10'3 6.5
2017-Oct-17 04:30N 34°41' E 135°12'0 0.0
2017-Oct-16 06:49N 34°41' E 135°12'0 0.0
2017-Oct-16 06:30N 34°41' E 135°12'2 3.2
2017-Oct-16 06:00N 34°40' E 135°11'0 0.8
2017-Oct-16 05:30N 34°40' E 135°11'3 6.5
2017-Oct-16 05:00N 34°37' E 135°08'13 0.4
2017-Oct-14 18:29N 34°36' E 134°53'714.1
2017-Oct-14 18:00N 34°37' E 135°01'5 9.2
2017-Oct-14 17:30N 34°35' E 135°06'2 4.8
2017-Oct-14 17:00N 34°36' E 135°09'611.9
2017-Oct-14 16:30N 34°41' E 135°12'0 0.7
2017-Oct-14 16:00N 34°41' E 135°12'0 0.0
2017-Oct-14 15:30N 34°41' E 135°12'0 0.0
2017-Oct-14 15:00N 34°41' E 135°12'0 0.0
2017-Oct-14 14:30N 34°41' E 135°12'0 0.1
2017-Oct-14 14:00N 34°41' E 135°12'0 0.1
2017-Oct-14 13:30N 34°41' E 135°12'0 0.0
2017-Oct-14 13:00N 34°41' E 135°12'0 0.0
2017-Oct-14 12:30N 34°41' E 135°12'0 0.0
2017-Oct-12 21:22N 34°41' E 135°12'2 4.8
2017-Oct-12 21:00N 34°40' E 135°11'714.0
2017-Oct-12 20:30N 34°36' E 135°04'3 4.2
2017-Oct-12 19:53N 34°37' E 135°01'411.0
2017-Oct-12 19:30N 34°35' E 135°05'3 5.8
2017-Oct-12 19:01N 34°34' E 135°09'611.8
2017-Oct-12 18:30N 34°40' E 135°11'2 3.5
2017-Oct-12 18:00N 34°41' E 135°12'0 0.0
2017-Oct-12 00:20N 34°41' E 135°12'0 0.0
2017-Oct-12 00:00N 34°41' E 135°12'2 3.2
2017-Oct-11 23:30N 34°40' E 135°11'0 0.1
2017-Oct-11 23:00N 34°40' E 135°11'0 0.1
2017-Oct-11 22:30N 34°40' E 135°11'0 0.0
2017-Oct-11 22:00N 34°40' E 135°11'0 0.0
2017-Oct-11 21:30N 34°40' E 135°11'0 0.0
2017-Oct-11 21:00N 34°40' E 135°11'0 0.0
2017-Oct-11 20:30N 34°40' E 135°11'0 0.0
2017-Oct-11 20:00N 34°40' E 135°11'0 0.0
2017-Oct-11 19:30N 34°40' E 135°11'2 3.9
2017-Oct-11 19:00N 34°38' E 135°10'1013.6
2017-Oct-11 18:17N 34°37' E 134°58'4 9.0
2017-Oct-11 17:53N 34°37' E 135°03'3 9.1
2017-Oct-11 17:30N 34°35' E 135°06'2 3.4
2017-Oct-11 17:01N 34°35' E 135°08'7 0.2
2017-Oct-10 11:50N 34°41' E 135°12'0 0.0
2017-Oct-10 11:30N 34°41' E 135°12'0 0.0
2017-Oct-10 11:00N 34°41' E 135°12'0 0.0
2017-Oct-10 10:30N 34°41' E 135°12'0 0.0
2017-Oct-10 10:00N 34°41' E 135°12'0 0.0
2017-Oct-10 09:30N 34°41' E 135°12'0 0.0
2017-Oct-10 09:00N 34°41' E 135°12'0 0.0
2017-Oct-10 08:30N 34°41' E 135°12'0 0.1
2017-Oct-10 08:00N 34°41' E 135°12'0 0.1
2017-Oct-10 07:30N 34°41' E 135°12'0 0.0
2017-Oct-10 07:00N 34°41' E 135°12'4 8.9
2017-Oct-10 06:30N 34°37' E 135°10'  

Dump ship's entire track history